Time;durP1;ratioP1;P1;durP2;ratioP2;P2;SDS_P1;SDS_P2;PMS_P1;PMS_P2;Temp;Humidity;BMP_temperature;BMP_pressure;BME280_temperature;BME280_humidity;BME280_pressure;Samples;Min_cycle;Max_cycle;Signal;HPM_P1;HPM_P2
2023/07/24 00:00:16;;;;;;;13.60;7.00;;;;;;;18.62;68.14;99244.88;79169;1300;3011646;-67
2023/07/24 00:02:45;;;;;;;12.00;7.00;;;;;;;18.57;68.21;99246.31;78220;1300;3029227;-68
2023/07/24 00:05:11;;;;;;;10.60;6.40;;;;;;;18.44;69.34;99246.31;79421;1300;3013465;-67
2023/07/24 00:07:38;;;;;;;11.80;6.60;;;;;;;18.32;69.64;99245.52;79346;1298;3011714;-65
2023/07/24 00:10:06;;;;;;;11.10;7.00;;;;;;;18.16;69.84;99249.45;78240;1300;3028491;-64
2023/07/24 00:12:33;;;;;;;12.00;6.30;;;;;;;18.11;70.32;99244.88;79376;1300;3013335;-63
2023/07/24 00:14:59;;;;;;;7.80;4.50;;;;;;;18.11;70.35;99246.91;79389;1298;3011666;-68
2023/07/24 00:17:27;;;;;;;8.90;4.50;;;;;;;18.66;68.91;99245.09;78111;1296;3050558;-65
2023/07/24 00:19:53;;;;;;;9.20;5.50;;;;;;;19.09;67.07;99241.15;79363;1300;3018479;-66
2023/07/24 00:22:20;;;;;;;9.80;5.10;;;;;;;19.02;66.77;99241.91;79332;1300;3011715;-67
2023/07/24 00:24:48;;;;;;;6.60;4.40;;;;;;;18.92;67.00;99240.76;78133;1296;3027531;-64
2023/07/24 00:27:14;;;;;;;8.20;5.20;;;;;;;18.79;67.07;99237.06;79353;1300;3018712;-66
2023/07/24 00:29:41;;;;;;;6.80;4.60;;;;;;;18.56;67.86;99239.32;79310;1296;3013412;-66
2023/07/24 00:32:08;;;;;;;8.20;4.60;;;;;;;18.48;68.22;99240.17;78116;1296;3026245;-66
2023/07/24 00:34:35;;;;;;;11.40;4.80;;;;;;;18.36;68.91;99243.80;79426;1297;3014864;-65
2023/07/24 00:37:03;;;;;;;9.30;5.00;;;;;;;18.22;69.05;99240.54;79417;1298;3011572;-65
2023/07/24 00:39:31;;;;;;;6.30;4.60;;;;;;;18.13;69.45;99241.11;78038;1300;3051782;-67
2023/07/24 00:41:57;;;;;;;6.60;4.40;;;;;;;18.06;69.57;99239.78;79361;1303;3013142;-68
2023/07/24 00:44:24;;;;;;;8.50;4.90;;;;;;;18.02;69.80;99243.58;79484;1298;3011841;-67
2023/07/24 00:46:52;;;;;;;4.60;4.10;;;;;;;18.02;69.33;99239.11;78235;1297;3026383;-66
2023/07/24 00:49:20;;;;;;;5.30;4.00;;;;;;;17.99;69.51;99239.73;79464;1297;3013210;-70
2023/07/24 00:51:47;;;;;;;8.70;4.50;;;;;;;17.94;69.76;99238.06;79186;1297;3013447;-66
2023/07/24 00:54:15;;;;;;;4.10;2.80;;;;;;;17.91;69.83;99238.00;77993;1298;3052574;-64
2023/07/24 00:56:42;;;;;;;5.00;3.30;;;;;;;18.49;68.66;99235.02;79309;1298;3013460;-65
2023/07/24 00:59:08;;;;;;;4.80;3.60;;;;;;;18.83;66.88;99234.83;79320;1297;3011481;-66
2023/07/24 01:01:37;;;;;;;6.70;4.20;;;;;;;18.80;66.66;99239.00;77986;1300;3049949;-64
2023/07/24 01:04:04;;;;;;;7.50;4.00;;;;;;;18.66;66.98;99244.08;79338;1297;3013428;-63
2023/07/24 01:06:35;;;;;;;6.00;3.80;;;;;;;18.57;67.32;99246.80;78515;1303;3011933;-63
2023/07/24 01:09:03;;;;;;;4.90;3.60;;;;;;;18.41;67.70;99246.94;79416;1297;3011872;-65
2023/07/24 01:11:34;;;;;;;5.20;4.00;;;;;;;18.27;68.19;99244.88;79387;1298;3011781;-66
2023/07/24 01:14:11;;;;;;;5.70;4.20;;;;;;;18.14;68.52;99247.70;78026;1303;3050457;-66
2023/07/24 01:16:41;;;;;;;5.90;3.40;;;;;;;18.11;68.42;99248.04;78000;1297;3058241;-65
2023/07/24 01:19:23;;;;;;;6.00;3.80;;;;;;;17.97;69.13;99245.63;79192;1297;3013358;-65
2023/07/24 01:22:27;;;;;;;5.60;4.40;;;;;;;17.86;69.14;99245.56;78106;1298;3053049;-65
2023/07/24 01:25:16;;;;;;;6.30;4.00;;;;;;;17.75;69.42;99250.30;77850;1298;3049872;-65
2023/07/24 01:27:45;;;;;;;5.60;4.10;;;;;;;17.69;69.67;99254.59;78195;1303;3053065;-64
2023/07/24 01:30:12;;;;;;;6.50;3.90;;;;;;;17.66;69.58;99253.48;79444;1298;3018748;-65
2023/07/24 01:32:39;;;;;;;10.20;4.50;;;;;;;17.57;69.77;99253.70;79412;1297;3011541;-67
2023/07/24 01:35:07;;;;;;;7.50;3.10;;;;;;;17.56;70.11;99252.09;78058;1300;3057108;-63
2023/07/24 01:37:34;;;;;;;8.70;3.60;;;;;;;18.09;68.05;99254.20;79417;1298;3013434;-64
2023/07/24 01:40:00;;;;;;;9.40;5.70;;;;;;;18.52;66.46;99258.27;79423;1297;3013269;-65
2023/07/24 01:42:29;;;;;;;11.90;6.80;;;;;;;18.56;66.21;99260.17;78083;1303;3026410;-65
2023/07/24 01:44:55;;;;;;;8.90;5.50;;;;;;;18.41;66.35;99264.09;79222;1300;3013017;-63
2023/07/24 01:47:22;;;;;;;10.80;6.10;;;;;;;18.31;66.58;99262.81;79088;1300;3011712;-65
2023/07/24 01:49:50;;;;;;;11.40;6.30;;;;;;;18.13;67.09;99264.98;77949;1300;3027435;-66
2023/07/24 01:52:17;;;;;;;10.00;5.80;;;;;;;18.04;67.50;99264.08;79398;1298;3013071;-63
2023/07/24 01:54:43;;;;;;;9.40;6.20;;;;;;;17.94;68.10;99269.84;79202;1298;3012067;-66
2023/07/24 01:57:11;;;;;;;10.90;6.60;;;;;;;17.83;68.61;99270.25;78219;1300;3025975;-66
2023/07/24 01:59:37;;;;;;;12.80;6.80;;;;;;;17.76;68.86;99267.15;79389;1298;3014590;-64
2023/07/24 02:02:04;;;;;;;11.90;7.30;;;;;;;17.67;69.41;99264.35;79419;1296;3011739;-66
2023/07/24 02:04:32;;;;;;;13.10;8.20;;;;;;;17.59;69.65;99267.38;78143;1300;3029099;-62
2023/07/24 02:06:58;;;;;;;16.80;9.00;;;;;;;17.56;69.74;99264.09;79469;1296;3013466;-63
2023/07/24 02:09:25;;;;;;;19.40;11.50;;;;;;;17.56;69.34;99266.77;79359;1298;3011585;-65
2023/07/24 02:11:53;;;;;;;14.00;7.30;;;;;;;17.53;69.95;99275.20;78165;1301;3026499;-65
2023/07/24 02:14:20;;;;;;;24.10;10.00;;;;;;;18.12;69.13;99272.54;79439;1300;3021504;-67
2023/07/24 02:16:47;;;;;;;22.40;10.50;;;;;;;18.72;66.96;99270.33;79451;1298;3013544;-66
2023/07/24 02:19:14;;;;;;;40.00;15.50;;;;;;;18.67;66.55;99277.73;78264;1296;3056738;-64
2023/07/24 02:21:41;;;;;;;31.70;13.30;;;;;;;18.42;67.13;99271.29;79377;1296;3012900;-65
2023/07/24 02:24:07;;;;;;;30.10;13.20;;;;;;;18.30;67.49;99278.61;79159;1298;3013055;-66
2023/07/24 02:26:35;;;;;;;32.50;15.10;;;;;;;18.14;68.46;99278.61;78224;1300;3027769;-66
2023/07/24 02:29:02;;;;;;;42.20;19.20;;;;;;;17.99;68.52;99284.17;79589;1297;3013313;-65
2023/07/24 02:31:29;;;;;;;39.00;18.80;;;;;;;17.87;69.09;99281.29;79450;1296;3013335;-67
2023/07/24 02:33:58;;;;;;;38.30;19.50;;;;;;;17.74;69.98;99282.88;78097;1298;3056658;-65
2023/07/24 02:36:24;;;;;;;33.00;18.20;;;;;;;17.61;70.82;99284.73;79195;1297;3013105;-64
2023/07/24 02:38:51;;;;;;;46.80;21.70;;;;;;;17.60;70.59;99286.08;79317;1299;3013595;-64
2023/07/24 02:41:19;;;;;;;44.50;20.90;;;;;;;17.50;71.25;99286.99;78152;1300;3029994;-62
2023/07/24 02:43:45;;;;;;;38.70;14.30;;;;;;;17.45;71.71;99289.59;79427;1297;3013476;-65
2023/07/24 02:46:12;;;;;;;32.10;13.70;;;;;;;18.01;70.08;99288.50;79275;1296;3011484;-66
2023/07/24 02:48:40;;;;;;;33.60;16.40;;;;;;;18.51;68.35;99290.31;77987;1300;3026421;-66
2023/07/24 02:51:06;;;;;;;27.70;15.10;;;;;;;18.49;68.09;99286.06;79417;1296;3019079;-64
2023/07/24 02:53:32;;;;;;;36.90;18.30;;;;;;;18.39;68.16;99285.02;79419;1297;3011875;-65
2023/07/24 02:56:02;;;;;;;31.30;16.30;;;;;;;18.15;68.84;99287.32;78161;1300;3026141;-64
2023/07/24 02:58:28;;;;;;;29.60;14.80;;;;;;;18.06;69.13;99286.93;79418;1299;3013862;-66
2023/07/24 03:01:03;;;;;;;26.00;14.60;;;;;;;17.86;69.70;99286.35;79472;1297;3013644;-65
2023/07/24 03:03:30;;;;;;;29.50;15.60;;;;;;;17.80;70.19;99284.38;78159;1298;3058726;-66
2023/07/24 03:05:57;;;;;;;31.00;17.30;;;;;;;17.64;70.98;99287.94;79384;1300;3019332;-65
2023/07/24 03:08:23;;;;;;;25.60;15.30;;;;;;;17.56;71.34;99294.21;79265;1296;3011773;-65
2023/07/24 03:10:51;;;;;;;22.90;14.40;;;;;;;17.48;71.90;99289.62;78191;1300;3026323;-63
2023/07/24 03:13:18;;;;;;;22.60;10.30;;;;;;;17.48;72.17;99292.13;79463;1300;3013189;-64
2023/07/24 03:15:54;;;;;;;21.30;11.50;;;;;;;17.94;70.67;99291.98;79221;1296;3011548;-64
2023/07/24 03:18:22;;;;;;;24.70;13.00;;;;;;;18.30;69.60;99298.33;78006;1296;3057479;-63
2023/07/24 03:20:50;;;;;;;31.10;15.90;;;;;;;18.26;69.13;99298.52;79468;1300;3013738;-66
2023/07/24 03:23:17;;;;;;;30.70;14.30;;;;;;;18.20;69.24;99302.11;79459;1300;3011796;-63
2023/07/24 03:25:45;;;;;;;28.40;17.30;;;;;;;18.06;69.78;99299.75;78117;1297;3051447;-63
2023/07/24 03:28:11;;;;;;;25.90;15.50;;;;;;;17.89;70.22;99298.23;79308;1297;3018955;-63
2023/07/24 03:30:38;;;;;;;24.30;14.30;;;;;;;17.75;71.27;99301.48;79398;1300;3011809;-63
2023/07/24 03:33:07;;;;;;;24.30;14.20;;;;;;;17.72;71.19;99300.04;78126;1297;3026860;-69
2023/07/24 03:35:34;;;;;;;20.50;14.60;;;;;;;17.58;71.69;99303.71;79507;1300;3013129;-64
2023/07/24 03:38:00;;;;;;;26.90;14.90;;;;;;;17.44;72.54;99304.52;79440;1295;3011541;-63
2023/07/24 03:40:28;;;;;;;33.50;13.50;;;;;;;17.44;72.72;99309.10;77960;1300;3052715;-65
2023/07/24 03:42:55;;;;;;;25.70;13.80;;;;;;;17.90;71.75;99309.16;79413;1297;3013313;-65
2023/07/24 03:45:22;;;;;;;34.90;17.20;;;;;;;18.25;69.64;99315.63;79331;1296;3011420;-63
2023/07/24 03:47:50;;;;;;;31.20;15.80;;;;;;;18.25;69.79;99313.13;78247;1298;3027641;-66
2023/07/24 03:50:16;;;;;;;32.40;15.60;;;;;;;18.23;69.50;99314.73;79340;1296;3012962;-64
2023/07/24 03:52:43;;;;;;;23.80;14.70;;;;;;;18.25;69.46;99317.19;79549;1296;3011485;-64
2023/07/24 03:55:11;;;;;;;24.00;14.00;;;;;;;18.12;69.70;99317.54;78163;1298;3026961;-65
2023/07/24 03:57:37;;;;;;;26.30;14.00;;;;;;;17.99;70.30;99314.73;79531;1298;3013470;-66
2023/07/24 04:00:05;;;;;;;26.60;16.20;;;;;;;17.81;70.96;99313.68;79455;1296;3012006;-63
2023/07/24 04:02:40;;;;;;;24.80;15.00;;;;;;;17.82;71.49;99314.36;78354;1298;3057449;-64
2023/07/24 04:05:06;;;;;;;26.00;15.80;;;;;;;17.77;71.48;99313.92;79446;1298;3020627;-65
2023/07/24 04:07:33;;;;;;;17.60;9.80;;;;;;;17.85;71.51;99312.09;79523;1298;3011635;-65
2023/07/24 04:10:01;;;;;;;17.10;9.50;;;;;;;18.38;69.65;99309.41;78156;1300;3027170;-63
2023/07/24 04:12:28;;;;;;;14.80;10.30;;;;;;;18.85;67.85;99309.69;79419;1300;3013634;-66
2023/07/24 04:14:55;;;;;;;15.90;10.90;;;;;;;19.08;67.28;99308.41;79179;1296;3011769;-65
2023/07/24 04:17:23;;;;;;;19.50;11.50;;;;;;;19.09;67.17;99302.19;78059;1300;3056364;-63
2023/07/24 04:19:49;;;;;;;16.60;10.50;;;;;;;19.04;67.18;99304.48;79456;1298;3014427;-62
2023/07/24 04:22:16;;;;;;;15.20;10.50;;;;;;;18.97;67.14;99298.42;79088;1296;3011675;-63
2023/07/24 04:24:43;;;;;;;20.30;10.50;;;;;;;18.96;67.27;99298.38;78069;1298;3029696;-64
2023/07/24 04:27:10;;;;;;;16.70;11.20;;;;;;;18.98;66.92;99304.71;79296;1300;3013238;-63
2023/07/24 04:29:36;;;;;;;18.70;10.80;;;;;;;18.91;67.57;99314.06;79223;1297;3011641;-63
2023/07/24 04:32:05;;;;;;;16.80;10.10;;;;;;;18.90;67.71;99311.36;78025;1298;3026644;-64
2023/07/24 04:34:32;;;;;;;18.70;9.20;;;;;;;18.90;67.84;99316.34;79474;1296;3012990;-66
2023/07/24 04:36:59;;;;;;;23.70;12.30;;;;;;;18.84;67.80;99318.18;79370;1296;3011591;-65
2023/07/24 04:39:27;;;;;;;19.00;9.80;;;;;;;18.81;67.59;99318.78;78049;1300;3052279;-64
2023/07/24 04:41:53;;;;;;;18.30;10.10;;;;;;;18.83;67.97;99317.23;79337;1300;3020684;-65
2023/07/24 04:44:20;;;;;;;23.70;9.30;;;;;;;18.86;67.59;99319.00;79188;1296;3013633;-65
2023/07/24 04:46:48;;;;;;;15.40;9.50;;;;;;;18.84;67.55;99321.93;78178;1297;3028446;-63
2023/07/24 04:49:14;;;;;;;19.60;8.90;;;;;;;18.89;67.25;99320.01;79405;1297;3011855;-66
2023/07/24 04:51:41;;;;;;;20.70;9.50;;;;;;;18.99;66.78;99318.80;79422;1297;3013503;-66
2023/07/24 04:54:09;;;;;;;13.50;8.30;;;;;;;19.12;66.73;99314.54;78064;1300;3026315;-67
2023/07/24 04:56:35;;;;;;;14.50;8.10;;;;;;;19.11;65.43;99314.63;79381;1298;3012729;-64
2023/07/24 04:59:02;;;;;;;15.50;7.60;;;;;;;19.15;64.31;99317.28;79169;1296;3011555;-63
2023/07/24 05:01:30;;;;;;;18.90;8.30;;;;;;;19.28;64.51;99313.15;78085;1297;3026938;-65
2023/07/24 05:03:56;;;;;;;13.10;7.80;;;;;;;19.32;64.21;99306.16;79326;1297;3018993;-65
2023/07/24 05:06:23;;;;;;;18.10;8.00;;;;;;;19.36;63.68;99305.60;79419;1298;3011657;-65
2023/07/24 05:08:52;;;;;;;15.70;7.80;;;;;;;19.38;64.01;99305.03;78269;1299;3026327;-65
2023/07/24 05:11:19;;;;;;;7.20;5.20;;;;;;;19.41;63.60;99305.77;79324;1297;3012643;-65
2023/07/24 05:13:46;;;;;;;8.50;6.00;;;;;;;19.42;62.83;99303.77;79239;1296;3012088;-64
2023/07/24 05:16:13;;;;;;;12.60;5.80;;;;;;;19.43;62.77;99302.02;78198;1298;3058143;-65
2023/07/24 05:18:40;;;;;;;9.70;6.40;;;;;;;19.55;63.04;99299.05;79381;1298;3020751;-66
2023/07/24 05:21:07;;;;;;;9.40;5.50;;;;;;;19.61;61.97;99300.81;79184;1297;3011675;-63
2023/07/24 05:23:34;;;;;;;9.10;5.70;;;;;;;19.69;62.13;99299.48;78018;1300;3028733;-64
2023/07/24 05:26:02;;;;;;;7.60;5.00;;;;;;;19.84;61.63;99298.19;79396;1300;3013334;-66
2023/07/24 05:28:29;;;;;;;12.20;5.60;;;;;;;19.91;60.71;99297.95;79364;1300;3011663;-63
2023/07/24 05:31:02;;;;;;;10.20;4.40;;;;;;;19.92;60.01;99297.33;78154;1297;3056718;-64
2023/07/24 05:33:29;;;;;;;7.60;4.80;;;;;;;19.90;59.97;99293.81;79176;1296;3011671;-65
2023/07/24 05:36:00;;;;;;;6.90;4.00;;;;;;;20.00;60.14;99289.39;78258;1300;3054041;-63
2023/07/24 05:38:28;;;;;;;6.10;3.60;;;;;;;20.12;59.84;99290.46;79429;1296;3011877;-64
2023/07/24 05:41:01;;;;;;;7.20;3.70;;;;;;;20.24;59.93;99291.70;78267;1298;3052030;-63
2023/07/24 05:43:27;;;;;;;7.30;3.60;;;;;;;20.27;59.21;99291.10;79436;1299;3013663;-65
2023/07/24 05:45:56;;;;;;;4.60;3.30;;;;;;;20.23;58.84;99287.75;78564;1298;3069812;-65
2023/07/24 05:48:22;;;;;;;5.20;3.50;;;;;;;20.23;58.52;99290.75;79533;1295;3013976;-65
2023/07/24 05:50:49;;;;;;;5.00;3.50;;;;;;;20.29;58.65;99288.50;79362;1294;3011758;-65
2023/07/24 05:53:17;;;;;;;5.50;3.70;;;;;;;20.35;58.83;99289.00;78460;1298;3053537;-65
2023/07/24 05:55:44;;;;;;;4.30;3.50;;;;;;;20.40;58.04;99291.89;79597;1295;3013586;-63
2023/07/24 05:58:11;;;;;;;11.40;3.60;;;;;;;20.54;58.31;99293.23;79445;1295;3011662;-65
2023/07/24 06:00:39;;;;;;;5.30;3.80;;;;;;;20.61;58.29;99295.23;78353;1299;3025695;-65
2023/07/24 06:03:05;;;;;;;4.40;3.60;;;;;;;20.56;58.03;99298.39;79650;1296;3012662;-66
2023/07/24 06:05:32;;;;;;;5.70;3.20;;;;;;;20.64;57.57;99295.08;79510;1298;3013225;-66
2023/07/24 06:07:59;;;;;;;10.60;3.40;;;;;;;20.82;57.71;99295.85;78372;1295;3026543;-64
2023/07/24 06:10:26;;;;;;;4.80;3.70;;;;;;;20.91;57.39;99300.21;79907;1294;3013263;-63
2023/07/24 06:12:52;;;;;;;5.70;3.40;;;;;;;20.92;57.34;99297.23;79412;1300;3011818;-65
2023/07/24 06:15:20;;;;;;;6.90;3.20;;;;;;;20.89;56.74;99293.20;78259;1298;3026618;-64
2023/07/24 06:17:47;;;;;;;4.60;3.70;;;;;;;21.00;56.79;99293.05;79603;1298;3018539;-65
2023/07/24 06:20:14;;;;;;;6.10;3.80;;;;;;;21.02;56.45;99290.05;79599;1298;3011651;-64
2023/07/24 06:22:41;;;;;;;4.10;3.60;;;;;;;21.10;56.67;99291.23;78291;1294;3029001;-64
2023/07/24 06:25:08;;;;;;;9.60;3.60;;;;;;;21.21;56.62;99287.55;79595;1294;3014085;-63
2023/07/24 06:27:35;;;;;;;7.80;3.70;;;;;;;21.24;55.99;99290.43;79827;1296;3013947;-63
2023/07/24 06:30:03;;;;;;;5.60;3.60;;;;;;;21.23;56.09;99287.77;78279;1297;3028336;-64
2023/07/24 06:32:30;;;;;;;5.20;3.80;;;;;;;21.28;56.14;99287.96;79628;1294;3013735;-64
2023/07/24 06:34:56;;;;;;;5.80;3.60;;;;;;;21.30;56.36;99284.63;79514;1295;3011480;-67
2023/07/24 06:37:24;;;;;;;8.10;4.20;;;;;;;21.37;55.93;99285.58;78302;1295;3052067;-66
2023/07/24 06:39:51;;;;;;;6.30;3.40;;;;;;;21.47;56.18;99285.85;79479;1294;3013702;-68
2023/07/24 06:42:17;;;;;;;5.80;3.50;;;;;;;21.53;56.08;99284.54;79462;1295;3011642;-68
2023/07/24 06:44:45;;;;;;;6.90;3.50;;;;;;;21.49;54.49;99289.33;78304;1294;3025908;-68
2023/07/24 06:47:11;;;;;;;3.70;2.60;;;;;;;21.52;53.93;99283.73;79753;1300;3013116;-71
2023/07/24 06:49:38;;;;;;;4.80;2.60;;;;;;;21.53;53.40;99284.36;79584;1298;3011796;-67
2023/07/24 06:52:06;;;;;;;4.10;2.40;;;;;;;21.68;53.29;99286.09;78270;1300;3029747;-69
2023/07/24 06:54:33;;;;;;;7.90;3.00;;;;;;;21.79;53.14;99282.90;79435;1300;3013233;-69
2023/07/24 06:56:59;;;;;;;4.80;2.80;;;;;;;21.84;52.59;99290.71;79498;1299;3011721;-69
2023/07/24 06:59:27;;;;;;;5.00;3.00;;;;;;;21.81;52.19;99289.89;78234;1297;3029356;-64
2023/07/24 07:01:53;;;;;;;5.20;2.90;;;;;;;21.79;51.62;99289.73;79358;1295;3013079;-66
2023/07/24 07:04:20;;;;;;;4.80;2.70;;;;;;;21.88;51.28;99283.69;79398;1299;3011383;-69
2023/07/24 07:06:48;;;;;;;6.50;2.80;;;;;;;22.02;51.58;99279.10;78163;1299;3028999;-70
2023/07/24 07:09:14;;;;;;;4.20;2.90;;;;;;;21.91;51.34;99290.73;79425;1300;3013474;-67
2023/07/24 07:11:43;;;;;;;5.70;2.80;;;;;;;21.98;51.37;99289.55;79441;1300;3011655;-70
2023/07/24 07:14:10;;;;;;;6.30;3.00;;;;;;;22.04;51.22;99283.91;78186;1300;3068463;-73
2023/07/24 07:16:37;;;;;;;7.20;3.30;;;;;;;22.09;51.40;99285.49;79464;1294;3013636;-70
2023/07/24 07:19:04;;;;;;;3.80;3.40;;;;;;;21.99;50.97;99283.01;79426;1295;3012070;-75
2023/07/24 07:21:31;;;;;;;7.40;2.80;;;;;;;22.15;51.22;99282.27;78337;1300;3026674;-67
2023/07/24 07:23:58;;;;;;;4.50;3.10;;;;;;;22.38;50.89;99278.16;79720;1294;3012780;-70
2023/07/24 07:26:25;;;;;;;4.10;3.00;;;;;;;22.45;50.49;99287.39;79539;1297;3013308;-69
2023/07/24 07:28:53;;;;;;;5.30;3.10;;;;;;;22.27;50.43;99287.23;78519;1294;3026746;-68
2023/07/24 07:31:20;;;;;;;5.80;3.30;;;;;;;22.35;50.29;99279.59;79401;1295;3013514;-73
2023/07/24 07:33:46;;;;;;;11.30;3.10;;;;;;;22.48;50.16;99287.08;79585;1294;3013170;-74
2023/07/24 07:36:14;;;;;;;6.70;3.20;;;;;;;22.45;50.24;99289.20;78312;1298;3026550;-72
2023/07/24 07:38:41;;;;;;;4.30;3.10;;;;;;;22.57;49.51;99290.69;79529;1299;3019003;-70
2023/07/24 07:41:07;;;;;;;8.20;3.10;;;;;;;22.59;47.70;99288.46;79467;1295;3013549;-70
2023/07/24 07:43:36;;;;;;;4.50;3.00;;;;;;;22.81;47.73;99285.50;78507;1297;3026217;-73
2023/07/24 07:46:02;;;;;;;10.40;3.60;;;;;;;23.09;47.94;99283.77;79628;1296;3013134;-72
2023/07/24 07:48:29;;;;;;;7.90;3.30;;;;;;;23.33;47.96;99281.44;79412;1294;3011848;-72
2023/07/24 07:50:57;;;;;;;5.40;3.20;;;;;;;23.61;47.82;99279.58;78250;1298;3026510;-72
2023/07/24 07:53:23;;;;;;;4.90;3.10;;;;;;;23.81;46.60;99282.94;79425;1300;3018920;-73
2023/07/24 07:55:57;;;;;;;4.30;2.90;;;;;;;23.74;46.51;99282.83;79470;1299;3011640;-69
2023/07/24 07:58:25;;;;;;;5.00;3.20;;;;;;;23.52;46.95;99288.52;78208;1300;3068216;-71
2023/07/24 08:00:51;;;;;;;5.30;2.80;;;;;;;23.64;46.89;99284.59;79614;1295;3013480;-73
2023/07/24 08:03:18;;;;;;;5.20;3.20;;;;;;;23.47;46.78;99287.82;79604;1296;3011552;-68
2023/07/24 08:05:46;;;;;;;6.30;2.80;;;;;;;23.38;47.13;99296.61;78411;1298;3026642;-75
2023/07/24 08:08:12;;;;;;;6.90;3.30;;;;;;;23.33;47.18;99292.90;79523;1298;3012904;-67
2023/07/24 08:10:39;;;;;;;5.70;2.50;;;;;;;23.11;47.13;99294.31;79763;1295;3013056;-69
2023/07/24 08:13:07;;;;;;;7.00;2.90;;;;;;;23.05;46.97;99291.94;78495;1296;3028067;-69
2023/07/24 08:15:35;;;;;;;4.80;2.50;;;;;;;22.91;46.58;99290.60;79730;1295;3011580;-68
2023/07/24 08:18:04;;;;;;;3.00;2.30;;;;;;;22.87;46.25;99291.05;79578;1295;3011315;-69
2023/07/24 08:20:32;;;;;;;6.50;2.40;;;;;;;23.07;46.16;99282.95;78360;1296;3052736;-66
2023/07/24 08:22:59;;;;;;;3.10;2.30;;;;;;;23.41;45.99;99276.73;79598;1298;3013580;-70
2023/07/24 08:25:25;;;;;;;3.50;2.40;;;;;;;23.74;45.28;99276.97;79575;1298;3012792;-74
2023/07/24 08:27:53;;;;;;;5.00;2.10;;;;;;;23.50;43.34;99280.73;78463;1295;3027370;-70
2023/07/24 08:30:19;;;;;;;5.40;2.00;;;;;;;23.51;43.64;99285.16;79663;1294;3013162;-70
2023/07/24 08:32:46;;;;;;;2.90;2.10;;;;;;;23.42;41.99;99278.51;79658;1296;3011942;-68
2023/07/24 08:35:14;;;;;;;4.40;2.70;;;;;;;23.69;42.97;99276.08;78423;1294;3026154;-70
2023/07/24 08:37:46;;;;;;;7.50;2.40;;;;;;;23.99;42.61;99273.85;79646;1298;3013041;-73
2023/07/24 08:40:15;;;;;;;9.00;2.30;;;;;;;24.10;41.90;99273.55;78371;1296;3053783;-69
2023/07/24 08:42:42;;;;;;;2.20;1.90;;;;;;;24.26;41.38;99265.01;79667;1296;3013367;-66
2023/07/24 08:45:15;;;;;;;6.90;2.60;;;;;;;24.25;40.86;99264.09;79624;1297;3011537;-72
2023/07/24 08:47:46;;;;;;;3.70;2.20;;;;;;;24.17;40.80;99262.57;78307;1297;3049347;-66
2023/07/24 08:50:14;;;;;;;3.30;1.70;;;;;;;24.33;39.64;99260.60;79498;1298;3011357;-71
2023/07/24 08:52:44;;;;;;;3.90;2.10;;;;;;;24.34;38.99;99263.91;78308;1300;3050242;-68
2023/07/24 08:55:11;;;;;;;2.50;2.00;;;;;;;24.37;39.37;99266.59;79499;1294;3013886;-69
2023/07/24 08:57:37;;;;;;;4.20;2.60;;;;;;;24.47;39.56;99261.83;79507;1300;3012211;-71
2023/07/24 09:00:06;;;;;;;4.60;2.70;;;;;;;24.37;40.75;99268.36;78241;1300;3051171;-69
2023/07/24 09:02:33;;;;;;;9.70;3.00;;;;;;;24.44;41.36;99266.96;79410;1298;3014127;-66
2023/07/24 09:05:00;;;;;;;10.90;3.30;;;;;;;24.62;41.41;99260.66;79338;1296;3013006;-64
2023/07/24 09:07:29;;;;;;;5.30;3.20;;;;;;;24.79;41.46;99261.35;78201;1298;3048868;-68
2023/07/24 09:09:56;;;;;;;6.00;3.20;;;;;;;24.68;41.31;99262.88;79541;1295;3011717;-63
2023/07/24 09:12:23;;;;;;;4.20;2.80;;;;;;;24.57;41.81;99258.73;79418;1298;3011577;-66
2023/07/24 09:15:04;;;;;;;3.80;2.30;;;;;;;24.46;41.65;99261.24;78221;1298;3052252;-65
2023/07/24 09:17:32;;;;;;;4.50;2.90;;;;;;;24.14;41.60;99260.60;78177;1300;3058300;-66
2023/07/24 09:19:59;;;;;;;7.70;2.80;;;;;;;24.08;41.74;99261.18;79605;1300;3013421;-73
2023/07/24 09:22:26;;;;;;;2.80;2.40;;;;;;;24.26;41.11;99260.06;79501;1296;3011775;-70
2023/07/24 09:24:56;;;;;;;3.50;2.40;;;;;;;24.43;40.78;99261.00;78316;1300;3051709;-75
2023/07/24 09:27:26;;;;;;;4.60;2.60;;;;;;;24.70;40.64;99252.70;79659;1298;3013210;-72
2023/07/24 09:29:57;;;;;;;2.80;2.40;;;;;;;25.00;39.85;99251.85;78303;1301;3051775;-74
2023/07/24 09:32:25;;;;;;;3.00;2.40;;;;;;;25.24;38.99;99243.70;79459;1300;3012982;-70
2023/07/24 09:34:54;;;;;;;7.20;2.40;;;;;;;25.19;38.87;99253.67;78354;1295;3026990;-71
2023/07/24 09:37:29;;;;;;;5.90;2.50;;;;;;;24.96;38.98;99252.59;79556;1298;3013502;-75
2023/07/24 09:39:57;;;;;;;5.00;2.50;;;;;;;24.99;38.87;99253.98;78258;1300;3053343;-74
2023/07/24 09:42:34;;;;;;;4.00;2.70;;;;;;;25.04;38.96;99242.41;79765;1298;3018550;-69
2023/07/24 09:45:03;;;;;;;3.90;2.40;;;;;;;25.42;38.97;99230.02;78449;1295;3052379;-72
2023/07/24 09:47:30;;;;;;;11.20;2.60;;;;;;;25.56;38.87;99233.84;79697;1294;3012004;-72
2023/07/24 09:49:57;;;;;;;4.10;2.60;;;;;;;25.54;39.06;99226.71;79494;1295;3011806;-71
2023/07/24 09:52:24;;;;;;;6.20;2.60;;;;;;;25.61;38.88;99220.17;78438;1298;3048163;-72
2023/07/24 09:55:01;;;;;;;8.30;2.60;;;;;;;25.83;38.37;99218.70;79471;1298;3019128;-68
2023/07/24 09:57:29;;;;;;;4.30;2.30;;;;;;;25.97;38.13;99220.42;78235;1294;3069807;-69
2023/07/24 09:59:56;;;;;;;5.10;2.40;;;;;;;26.00;37.60;99215.73;79592;1294;3018537;-68
2023/07/24 10:02:23;;;;;;;3.90;2.30;;;;;;;26.25;37.61;99210.20;79457;1294;3011915;-68
2023/07/24 10:04:50;;;;;;;6.60;2.80;;;;;;;26.57;37.16;99214.46;75651;1300;3054270;-69
2023/07/24 10:07:16;;;;;;;6.70;2.90;;;;;;;26.56;37.03;99207.84;79460;1298;3013624;-69
2023/07/24 10:09:44;;;;;;;5.00;2.80;;;;;;;26.17;36.08;99212.67;79501;1300;3011651;-72
2023/07/24 10:12:11;;;;;;;5.40;2.50;;;;;;;26.12;36.68;99208.68;78329;1300;3026834;-69
2023/07/24 10:14:38;;;;;;;5.30;2.30;;;;;;;26.23;36.64;99206.37;79664;1295;3013761;-68
2023/07/24 10:17:05;;;;;;;5.10;2.90;;;;;;;26.30;35.91;99206.64;79456;1295;3012044;-67
2023/07/24 10:19:38;;;;;;;6.10;3.30;;;;;;;26.41;35.71;99205.11;78257;1295;3027623;-66
2023/07/24 10:22:05;;;;;;;8.50;2.80;;;;;;;26.46;35.53;99200.98;79412;1295;3011662;-68
2023/07/24 10:24:33;;;;;;;5.80;2.30;;;;;;;26.61;35.67;99203.59;78297;1300;3052198;-66
2023/07/24 10:27:01;;;;;;;6.20;2.20;;;;;;;26.75;34.67;99200.64;79497;1300;3013215;-64
2023/07/24 10:29:28;;;;;;;3.20;2.10;;;;;;;26.81;34.67;99199.48;79338;1296;3013005;-66
2023/07/24 10:31:55;;;;;;;5.50;2.70;;;;;;;26.90;34.31;99201.70;78184;1300;3057045;-66
2023/07/24 10:34:22;;;;;;;5.90;2.50;;;;;;;27.05;34.51;99189.43;79584;1294;3013341;-70
2023/07/24 10:36:48;;;;;;;9.40;4.30;;;;;;;27.17;34.11;99188.60;79538;1295;3011648;-65
2023/07/24 10:39:19;;;;;;;7.70;3.60;;;;;;;27.25;33.57;99183.95;78395;1299;3027463;-67
2023/07/24 10:41:46;;;;;;;6.00;2.80;;;;;;;27.17;33.24;99184.30;79502;1298;3013350;-66
2023/07/24 10:44:15;;;;;;;4.20;2.30;;;;;;;27.09;33.35;99184.00;78969;1295;3011963;-66
2023/07/24 10:46:42;;;;;;;3.10;2.20;;;;;;;26.99;33.08;99176.45;79472;1295;3013628;-65
2023/07/24 10:49:09;;;;;;;6.20;2.80;;;;;;;27.21;32.90;99177.77;79462;1295;3013214;-68
2023/07/24 10:51:39;;;;;;;7.60;2.20;;;;;;;27.37;32.78;99173.11;78277;1295;3052434;-67
2023/07/24 10:54:06;;;;;;;3.50;2.30;;;;;;;27.62;32.15;99171.67;79520;1299;3013383;-66
2023/07/24 10:56:36;;;;;;;5.80;2.30;;;;;;;27.66;32.50;99173.86;79016;1300;3012965;-66
2023/07/24 10:59:04;;;;;;;5.80;2.30;;;;;;;27.27;33.31;99173.13;79558;1298;3013385;-67
2023/07/24 11:01:31;;;;;;;3.30;2.10;;;;;;;27.52;33.30;99177.55;79644;1295;3011431;-69
2023/07/24 11:03:59;;;;;;;2.90;2.20;;;;;;;27.51;33.01;99181.99;78322;1295;3056530;-67
2023/07/24 11:06:26;;;;;;;2.90;2.30;;;;;;;27.64;33.19;99180.19;79497;1299;3014980;-65
2023/07/24 11:08:57;;;;;;;3.90;2.20;;;;;;;27.72;33.07;99178.70;79431;1294;3013443;-67
2023/07/24 11:11:31;;;;;;;6.60;2.40;;;;;;;27.87;33.34;99178.38;78215;1299;3050455;-67
2023/07/24 11:14:01;;;;;;;6.30;2.40;;;;;;;27.94;33.01;99179.00;78964;1298;3013621;-66